• Join FlightAware (Why Join?)
  • Login
  • US Flag 
05:12PM EDT


 

Airport Tracker/Info


-or-


 

Live Flight TrackerFlight Track Log ✈ ASQ5685 ✈ 23-Jun-2013 ✈ KATL - KIAD

Flight Track Log - Related Links

Times and Time Zones

All times are in EDT time to prevent confusion due to time zone crossing. See the ASQ5685 flight status page for this flight to view local times or setup timezone preferences in your user account.

Time Position Orientation Groundspeed Altitude Reporting Facility
EDT Latitude Longitude Course Direction KTS MPH feet Rate Location/Type
09:32AM 33.6333 -84.3833 53° Northeast 175 201 2,300  Level Atlanta TRACON
09:33AM 33.6333 -84.3000 90° East 257 296 4,000 2,100 Climbing Atlanta TRACON
09:34AM 33.6333 -84.2167 90° East 268 308 6,300 2,340 Climbing Atlanta TRACON
09:35AM 33.7618 -83.9583 54° Northeast  Level FlightAware Approximate
09:35AM 33.6336 -84.1186 90° East 304 350 8,800  Level Atlanta Center
09:36AM 33.8213 -83.8591 54° Northeast  Level FlightAware Approximate
09:36AM 33.6817 -84.0389 54° Northeast 295 339 10,600  Level Atlanta Center
09:37AM 33.8828 -83.7618 48° Northeast  Level FlightAware Approximate
09:37AM 33.7358 -83.9639 49° Northeast 303 349 11,400  Level Atlanta Center
09:38AM 33.9475 -83.6673 53° Northeast  Level FlightAware Approximate
09:38AM 33.8044 -83.8764 47° Northeast 341 392 12,900  Level Atlanta Center
09:39AM 33.8775 -83.7836 47° Northeast 365 420 14,100 1,200 Climbing Atlanta Center
09:40AM 33.9461 -83.6883 49° Northeast 370 426 15,400 1,260 Climbing Atlanta Center
09:41AM 34.0125 -83.5828 53° Northeast 385 443 16,700 1,200 Climbing Atlanta Center
09:42AM 34.0769 -83.4819 52° Northeast 385 443 17,800 960 Climbing Atlanta Center
09:43AM 34.1431 -83.3736 54° Northeast 390 449 18,700 840 Climbing Atlanta Center
09:44AM 34.2092 -83.2678 53° Northeast 390 449 19,500 780 Climbing Atlanta Center
09:45AM 34.2817 -83.1564 52° Northeast 405 466 20,300 780 Climbing Atlanta Center
09:46AM 34.3558 -83.0347 54° Northeast 405 466 21,100 660 Climbing Atlanta Center
09:47AM 34.4236 -82.9206 54° Northeast 419 482 21,700 600 Climbing Atlanta Center
09:48AM 34.4978 -82.8039 52° Northeast 419 482 22,300 600 Climbing Atlanta Center
09:49AM 34.5675 -82.6867 54° Northeast 424 488 22,900 600 Climbing Atlanta Center
09:50AM 34.6433 -82.5719 51° Northeast 424 488 23,500 600 Climbing Atlanta Center
09:51AM 34.7169 -82.4569 52° Northeast 424 488 24,100 540 Climbing Atlanta Center
09:52AM 34.7883 -82.3367 54° Northeast 430 495 24,600 480 Climbing Atlanta Center
09:53AM 34.8617 -82.2136 54° Northeast 437 503 25,100 480 Climbing Atlanta Center
09:54AM 34.9392 -82.0903 53° Northeast 455 524 25,600 480 Climbing Atlanta Center
09:55AM 35.0144 -81.9669 53° Northeast 455 524 26,100 480 Climbing Atlanta Center
09:56AM 35.0850 -81.8381 56° Northeast 455 524 26,600 420 Climbing Atlanta Center
09:57AM 35.1536 -81.7094 57° Northeast 460 529 27,000 180 Climbing Atlanta Center
09:58AM 35.2242 -81.5725 58° Northeast 465 535 27,000  Level Atlanta Center
09:59AM 35.2942 -81.4356 58° Northeast 465 535 27,000  Level Atlanta Center
10:00AM 35.3644 -81.3011 57° Northeast 465 535 27,000  Level Atlanta Center
10:01AM 35.4361 -81.1608 58° Northeast 472 543 27,000  Level Atlanta Center
10:02AM 35.5081 -81.0233 57° Northeast 477 549 27,000  Level Atlanta Center
10:03AM 35.5817 -80.8853 57° Northeast 483 556 27,000  Level Atlanta Center
10:04AM 35.6531 -80.7444 58° Northeast 483 556 27,000  Level Atlanta Center
10:05AM 35.7244 -80.6058 58° Northeast 484 557 27,000  Level Atlanta Center
10:06AM 35.7956 -80.4647 58° Northeast 484 557 27,000  Level Atlanta Center
10:07AM 35.8608 -80.3414 57° Northeast 484 557 27,000  Level Atlanta Center
10:09AM 35.9789 -80.1094 58° Northeast 494 568 27,000  Level Washington Center
10:10AM 36.0489 -79.9722 58° Northeast 487 560 27,000  Level Washington Center
10:11AM 36.1267 -79.8378 54° Northeast 480 552 27,000  Level Washington Center
10:12AM 36.2044 -79.7003 55° Northeast 480 552 27,000  Level Washington Center
10:13AM 36.2842 -79.5628 54° Northeast 480 552 27,000  Level Washington Center
10:14AM 36.3575 -79.4297 56° Northeast 473 544 27,000 -60 Level Washington Center
10:15AM 36.4261 -79.3042 56° Northeast 479 551 26,900 -300 Descending Washington Center
10:16AM 36.5014 -79.1656 56° Northeast 479 551 26,400 -600 Descending Washington Center
10:17AM 36.5933 -79.0119 53° Northeast 484 557 25,800 -600 Descending Washington Center
10:18AM 36.6683 -78.8678 57° Northeast 484 557 25,300 -420 Descending Washington Center
10:19AM 36.7472 -78.7258 55° Northeast 490 564 25,000 -180 Descending Washington Center
10:20AM 36.8150 -78.6014 56° Northeast 495 570 25,000  Level Washington Center
10:21AM 36.9158 -78.4911 41° Northeast 477 549 25,000  Level Washington Center
10:22AM 37.0308 -78.3992 33° Northeast 477 549 25,000  Level Washington Center
10:23AM 37.1542 -78.2994 33° Northeast 482 555 25,000  Level Washington Center
10:24AM 37.2686 -78.2069 33° Northeast 482 555 25,000 -300 Level Washington Center
10:25AM 37.3683 -78.1292 32° Northeast 482 555 24,500 -1,320 Descending Washington Center
10:26AM 37.4811 -78.0336 34° Northeast 487 560 22,400 -2,040 Descending Washington Center
10:27AM 37.5933 -77.9403 33° Northeast 487 560 20,400 -2,040 Descending Washington Center
10:28AM 37.6994 -77.8489 34° Northeast 475 547 18,400 -1,980 Descending Washington Center
10:29AM 37.8033 -77.7653 32° Northeast 461 531 16,600 -1,920 Descending Washington Center
10:30AM 37.8986 -77.6839 34° Northeast 432 497 14,600 -1,980 Descending Washington Center
10:31AM 37.9936 -77.6047 33° Northeast 419 482 12,600 -2,040 Descending Washington Center
10:32AM 38.0867 -77.5333 31° Northeast 397 457 10,600 -1,380 Descending Washington Center
10:33AM 38.1647 -77.4669 34° Northeast 369 425 9,900 -600 Descending Washington Center
10:34AM 38.2386 -77.4158 29° Northeast 325 374 9,500 -780 Descending Washington Center
10:35AM 38.3103 -77.3725 25° Northeast 294 338 8,400 -1,080 Descending Washington Center
10:36AM 38.3875 -77.3586 North 281 323 7,400 -1,020 Descending Washington Center
10:37AM 38.4647 -77.3603 359° North 272 313 6,400 -1,020 Descending Washington Center
10:38AM 38.5397 -77.3647 357° North 272 313 5,400 -900 Descending Washington Center
10:39AM 38.6167 -77.3667 359° North 272 313 4,700 -720 Descending Washington Center
10:40AM 38.6833 -77.3667 360° North 273 314 4,100 -360 Descending Potomac TRACON
10:41AM 38.7333 -77.4333 314° West 253 291 4,100  Level Potomac TRACON